Panther Creek, Illinois
Current Conditions -  °F | °C
As of 2:15 AM on Monday 24 Nov 2014 (Local Time) from KIJX Reporting Station
Drizzle Drizzle  
Wind Chill: 36°   Ceiling: 600
Heat Index: 45°   Visibility: 2.5mi
Dew Point: 43°   Wind: 21mph
Humidity: 93%   Direction: 280°W
Pressure: 29.22"   Gusts: 25mph
Location:  40.0289°N, 90.1364°W
Report Text: KIJX 240815Z AUTO 28018G22KT 2 1/2SM DZ OVC006 07/06 A2922 RMK AO2 P0001 T00700059
Loading
Personal Weather Stations






























Interactive Weather Map New forecast layout! Learn more

10-Day Weather Forecast

Advertisements
Track Severe Weather on mobile